Time;durP1;ratioP1;P1;durP2;ratioP2;P2;SDS_P1;SDS_P2;PMS_P1;PMS_P2;Temp;Humidity;BMP_temperature;BMP_pressure;BME280_temperature;BME280_humidity;BME280_pressure;Samples;Min_cycle;Max_cycle;Signal;HPM_P1;HPM_P2
2021/11/23 00:01:07;;;;;;;;;;;2.70;99.90;;;;;;5151822;27;19937;-82
2021/11/23 00:03:32;;;;;;;;;;;2.70;99.90;;;;;;5143529;27;20127;-81
2021/11/23 00:05:58;;;;;;;;;;;2.60;99.90;;;;;;5138302;27;19989;-83
2021/11/23 00:08:23;;;;;;;;;;;2.60;99.90;;;;;;5140038;27;19915;-81
2021/11/23 00:10:49;;;;;;;;;;;2.60;99.90;;;;;;5124117;28;19912;-84
2021/11/23 00:13:15;;;;;;;;;;;2.60;99.90;;;;;;5139065;27;19973;-83
2021/11/23 00:15:41;;;;;;;;;;;2.60;99.90;;;;;;5145311;27;19907;-82
2021/11/23 00:18:07;;;;;;;;;;;2.70;99.90;;;;;;5138655;27;19912;-81
2021/11/23 00:20:33;;;;;;;;;;;2.60;99.90;;;;;;5144645;27;19951;-82
2021/11/23 00:22:59;;;;;;;;;;;2.60;99.90;;;;;;5146194;27;19915;-81
2021/11/23 00:25:26;;;;;;;;;;;2.60;99.90;;;;;;5132235;27;19912;-81
2021/11/23 00:27:52;;;;;;;;;;;2.50;99.90;;;;;;5127083;27;20008;-83
2021/11/23 00:30:17;;;;;;;;;;;2.50;99.90;;;;;;5116458;27;19911;-83
2021/11/23 00:32:43;;;;;;;;;;;2.50;99.90;;;;;;5131938;27;19919;-82
2021/11/23 00:35:08;;;;;;;;;;;2.50;1.00;;;;;;5120886;27;19926;-82
2021/11/23 00:37:34;;;;;;;;;;;2.60;99.90;;;;;;5144354;27;19912;-84
2021/11/23 00:39:59;;;;;;;;;;;2.70;1.00;;;;;;5134390;27;19939;-81
2021/11/23 00:42:25;;;;;;;;;;;2.60;1.00;;;;;;5143635;27;19911;-82
2021/11/23 00:44:51;;;;;;;;;;;2.50;1.00;;;;;;5140047;27;19911;-83
2021/11/23 00:47:16;;;;;;;;;;;2.50;99.90;;;;;;5127511;27;19911;-84
2021/11/23 00:49:43;;;;;;;;;;;2.50;1.00;;;;;;5123522;27;20507;-80
2021/11/23 00:52:09;;;;;;;;;;;2.50;1.00;;;;;;5124960;27;20361;-81
2021/11/23 00:54:35;;;;;;;;;;;2.40;1.00;;;;;;5129765;27;19912;-81
2021/11/23 00:57:00;;;;;;;;;;;2.40;1.00;;;;;;5131999;27;19915;-81
2021/11/23 00:59:26;;;;;;;;;;;2.40;1.00;;;;;;5135255;27;19907;-82
2021/11/23 01:01:51;;;;;;;;;;;2.30;1.00;;;;;;5130839;27;19912;-83
2021/11/23 01:04:17;;;;;;;;;;;2.30;1.00;;;;;;5137666;27;20227;-83
2021/11/23 01:06:42;;;;;;;;;;;2.30;1.00;;;;;;5127920;27;19936;-83
2021/11/23 01:09:08;;;;;;;;;;;2.30;99.90;;;;;;5128990;27;19927;-83
2021/11/23 01:11:33;;;;;;;;;;;2.30;99.90;;;;;;5093771;22;19924;-86
2021/11/23 01:13:59;;;;;;;;;;;2.20;1.00;;;;;;5049010;28;20300;-86
2021/11/23 01:16:24;;;;;;;;;;;2.20;1.00;;;;;;5054335;28;19920;-84
2021/11/23 01:18:50;;;;;;;;;;;2.20;1.00;;;;;;5055402;28;20295;-84
2021/11/23 01:21:15;;;;;;;;;;;2.30;1.00;;;;;;5067741;28;19960;-84
2021/11/23 01:23:41;;;;;;;;;;;2.30;23.30;;;;;;5073916;28;20414;-84
2021/11/23 01:26:07;;;;;;;;;;;2.30;99.90;;;;;;5070893;28;19912;-84
2021/11/23 01:28:32;;;;;;;;;;;2.30;99.90;;;;;;5074594;28;19912;-84
2021/11/23 01:31:00;;;;;;;;;;;2.40;99.90;;;;;;5073998;28;20265;-84
2021/11/23 01:33:25;;;;;;;;;;;2.40;99.90;;;;;;5074912;28;20364;-84
2021/11/23 01:35:51;;;;;;;;;;;2.40;99.90;;;;;;5075347;28;20007;-84
2021/11/23 01:38:16;;;;;;;;;;;2.40;72.20;;;;;;5076027;28;20038;-85
2021/11/23 01:40:43;;;;;;;;;;;2.40;99.90;;;;;;5076457;28;19927;-85
2021/11/23 01:43:08;;;;;;;;;;;2.40;99.90;;;;;;5074463;28;20050;-85
2021/11/23 01:45:35;;;;;;;;;;;2.40;1.00;;;;;;5076430;28;19943;-84
2021/11/23 01:48:01;;;;;;;;;;;2.40;61.80;;;;;;5077312;28;19973;-83
2021/11/23 01:50:26;;;;;;;;;;;2.40;99.90;;;;;;5077856;28;20392;-84
2021/11/23 01:52:52;;;;;;;;;;;2.40;99.90;;;;;;5075932;28;19974;-84
2021/11/23 01:55:17;;;;;;;;;;;2.40;1.00;;;;;;5078165;28;19913;-84
2021/11/23 01:57:43;;;;;;;;;;;2.40;1.00;;;;;;5075522;28;19959;-84
2021/11/23 02:00:10;;;;;;;;;;;2.40;66.00;;;;;;5077009;28;20007;-85
2021/11/23 02:02:35;;;;;;;;;;;2.40;99.90;;;;;;5072468;28;19913;-84
2021/11/23 02:05:01;;;;;;;;;;;2.40;99.90;;;;;;5077097;28;20277;-83
2021/11/23 02:07:26;;;;;;;;;;;2.40;99.90;;;;;;5075235;28;19920;-84
2021/11/23 02:09:52;;;;;;;;;;;2.30;99.90;;;;;;5076633;28;19913;-86
2021/11/23 02:12:18;;;;;;;;;;;2.40;99.90;;;;;;5074481;28;19912;-86
2021/11/23 02:14:43;;;;;;;;;;;2.30;99.90;;;;;;5075531;28;20015;-84
2021/11/23 02:17:09;;;;;;;;;;;2.30;99.90;;;;;;5071586;28;19951;-83
2021/11/23 02:19:34;;;;;;;;;;;2.30;1.00;;;;;;5078777;28;19913;-84
2021/11/23 02:22:00;;;;;;;;;;;2.30;1.00;;;;;;5077796;28;19965;-84
2021/11/23 02:24:26;;;;;;;;;;;2.30;99.90;;;;;;5084413;28;20451;-84
2021/11/23 02:26:51;;;;;;;;;;;2.30;99.90;;;;;;5092083;28;19913;-84
2021/11/23 02:29:17;;;;;;;;;;;2.20;99.90;;;;;;5085669;28;19916;-84
2021/11/23 02:31:42;;;;;;;;;;;2.20;99.90;;;;;;5075241;28;20338;-84
2021/11/23 02:34:08;;;;;;;;;;;2.10;1.00;;;;;;5070709;28;19920;-84
2021/11/23 02:36:35;;;;;;;;;;;2.00;99.90;;;;;;5077359;28;20399;-85
2021/11/23 02:39:02;;;;;;;;;;;2.00;1.00;;;;;;5072300;28;19913;-84
2021/11/23 02:41:28;;;;;;;;;;;1.90;99.90;;;;;;5065329;28;19913;-84
2021/11/23 02:43:53;;;;;;;;;;;1.90;1.00;;;;;;5074784;28;19915;-83
2021/11/23 02:46:19;;;;;;;;;;;1.90;95.20;;;;;;5073257;28;19913;-84
2021/11/23 02:48:45;;;;;;;;;;;1.90;99.90;;;;;;5072048;28;19975;-85
2021/11/23 02:51:15;;;;;;;;;;;1.90;99.90;;;;;;5073352;28;19912;-84
2021/11/23 02:53:41;;;;;;;;;;;1.90;99.90;;;;;;5072344;28;19917;-82
2021/11/23 02:56:07;;;;;;;;;;;1.80;1.00;;;;;;5072150;28;19912;-84
2021/11/23 02:58:33;;;;;;;;;;;1.80;99.90;;;;;;5072841;28;19950;-84
2021/11/23 03:01:00;;;;;;;;;;;1.80;1.00;;;;;;5073403;28;19938;-84
2021/11/23 03:03:25;;;;;;;;;;;1.80;1.00;;;;;;5074641;28;19943;-84
2021/11/23 03:05:54;;;;;;;;;;;1.90;1.00;;;;;;5074900;28;19955;-85
2021/11/23 03:08:20;;;;;;;;;;;1.90;1.00;;;;;;5079925;28;19917;-84
2021/11/23 03:10:45;;;;;;;;;;;1.90;1.00;;;;;;5074247;28;19927;-84
2021/11/23 03:13:11;;;;;;;;;;;1.90;1.00;;;;;;5073051;28;19917;-84
2021/11/23 03:15:36;;;;;;;;;;;1.90;1.00;;;;;;5073496;28;20410;-84
2021/11/23 03:18:02;;;;;;;;;;;1.90;99.90;;;;;;5073288;28;19928;-83
2021/11/23 03:20:28;;;;;;;;;;;1.90;99.90;;;;;;5075146;28;19954;-84
2021/11/23 03:22:54;;;;;;;;;;;1.80;99.90;;;;;;5072752;28;19920;-84
2021/11/23 03:25:20;;;;;;;;;;;1.80;99.90;;;;;;5071820;28;20390;-84
2021/11/23 03:27:45;;;;;;;;;;;1.80;99.90;;;;;;5074082;28;19924;-84
2021/11/23 03:30:12;;;;;;;;;;;1.70;99.90;;;;;;5073377;28;20003;-84
2021/11/23 03:32:38;;;;;;;;;;;1.70;99.90;;;;;;5071703;28;19912;-84
2021/11/23 03:35:04;;;;;;;;;;;1.60;99.90;;;;;;5073800;28;19919;-84
2021/11/23 03:37:30;;;;;;;;;;;1.60;1.00;;;;;;5073193;28;19909;-81
2021/11/23 03:39:55;;;;;;;;;;;1.60;1.00;;;;;;5076262;28;19987;-84
2021/11/23 03:42:21;;;;;;;;;;;1.60;1.00;;;;;;5074100;28;19951;-84
2021/11/23 03:44:46;;;;;;;;;;;1.60;1.00;;;;;;5077809;28;19919;-84
2021/11/23 03:47:12;;;;;;;;;;;1.60;1.00;;;;;;5074858;28;19967;-84
2021/11/23 03:49:42;;;;;;;;;;;1.60;1.00;;;;;;5077791;28;19912;-84
2021/11/23 03:52:08;;;;;;;;;;;1.50;1.00;;;;;;5076063;28;19915;-84
2021/11/23 03:54:33;;;;;;;;;;;1.50;1.00;;;;;;5075453;28;19917;-83
2021/11/23 03:56:59;;;;;;;;;;;1.50;18.90;;;;;;5073938;28;20376;-84
2021/11/23 03:59:24;;;;;;;;;;;1.50;29.30;;;;;;5070507;28;19915;-84
2021/11/23 04:01:50;;;;;;;;;;;1.50;62.90;;;;;;5076339;28;19912;-84
2021/11/23 04:04:15;;;;;;;;;;;1.50;99.90;;;;;;5077042;28;19970;-83
2021/11/23 04:06:41;;;;;;;;;;;1.50;99.90;;;;;;5079212;28;19912;-84
2021/11/23 04:09:06;;;;;;;;;;;1.50;99.90;;;;;;5075199;28;19913;-83
2021/11/23 04:11:32;;;;;;;;;;;1.60;99.90;;;;;;5076780;28;19923;-84
2021/11/23 04:13:58;;;;;;;;;;;1.60;99.90;;;;;;5076328;28;19916;-84
2021/11/23 04:16:23;;;;;;;;;;;1.60;99.90;;;;;;5075163;28;19920;-84
2021/11/23 04:18:50;;;;;;;;;;;1.60;99.90;;;;;;5073548;28;19928;-84
2021/11/23 04:21:15;;;;;;;;;;;1.60;99.90;;;;;;5075029;28;19944;-84
2021/11/23 04:23:41;;;;;;;;;;;1.60;99.90;;;;;;5075042;28;19912;-84
2021/11/23 04:26:06;;;;;;;;;;;1.60;99.90;;;;;;5076278;28;20403;-83
2021/11/23 04:28:32;;;;;;;;;;;1.70;99.90;;;;;;5075740;28;19912;-85
2021/11/23 04:30:57;;;;;;;;;;;1.80;99.90;;;;;;5076074;28;19920;-85
2021/11/23 04:33:23;;;;;;;;;;;1.90;99.90;;;;;;5074648;28;20013;-85
2021/11/23 04:35:48;;;;;;;;;;;2.00;99.90;;;;;;5071962;28;19912;-85
2021/11/23 04:38:14;;;;;;;;;;;2.00;99.90;;;;;;5075870;28;19923;-84
2021/11/23 04:40:39;;;;;;;;;;;2.10;99.90;;;;;;5077985;28;19913;-84
2021/11/23 04:43:06;;;;;;;;;;;2.20;99.90;;;;;;5077277;28;19938;-85
2021/11/23 04:45:35;;;;;;;;;;;2.30;99.90;;;;;;5080034;28;19970;-84
2021/11/23 04:48:00;;;;;;;;;;;2.30;99.90;;;;;;5077996;28;19913;-85
2021/11/23 04:50:26;;;;;;;;;;;2.30;99.90;;;;;;5078738;28;19974;-85
2021/11/23 04:52:52;;;;;;;;;;;2.40;99.90;;;;;;5077443;28;19935;-84
2021/11/23 04:55:18;;;;;;;;;;;2.50;99.90;;;;;;5072396;28;20372;-84
2021/11/23 04:57:43;;;;;;;;;;;2.50;99.90;;;;;;5077536;28;19916;-85
2021/11/23 05:00:10;;;;;;;;;;;2.60;99.90;;;;;;5077718;28;19995;-84
2021/11/23 05:02:36;;;;;;;;;;;2.60;99.90;;;;;;5076454;28;19923;-84
2021/11/23 05:05:01;;;;;;;;;;;2.60;99.90;;;;;;5077227;28;19912;-85
2021/11/23 05:07:27;;;;;;;;;;;2.70;99.90;;;;;;5076996;28;19965;-85
2021/11/23 05:09:52;;;;;;;;;;;2.70;99.90;;;;;;5076404;28;20292;-85
2021/11/23 05:12:18;;;;;;;;;;;2.70;99.90;;;;;;5069388;28;19916;-85
2021/11/23 05:14:43;;;;;;;;;;;2.70;99.90;;;;;;5079080;28;19917;-84
2021/11/23 05:17:09;;;;;;;;;;;2.80;99.90;;;;;;5078397;28;19919;-85
2021/11/23 05:19:34;;;;;;;;;;;2.80;99.90;;;;;;5075154;28;19912;-83
2021/11/23 05:22:00;;;;;;;;;;;2.90;99.90;;;;;;5075616;28;19948;-84
2021/11/23 05:24:25;;;;;;;;;;;2.90;99.90;;;;;;5074796;28;19912;-84
2021/11/23 05:26:51;;;;;;;;;;;3.00;92.50;;;;;;5075149;28;20035;-85
2021/11/23 05:29:16;;;;;;;;;;;3.00;29.80;;;;;;5071283;28;19917;-84
2021/11/23 05:31:41;;;;;;;;;;;3.00;1.00;;;;;;5068564;28;19951;-83
2021/11/23 05:34:07;;;;;;;;;;;3.00;1.00;;;;;;5072848;28;20292;-85
2021/11/23 05:36:33;;;;;;;;;;;3.00;1.00;;;;;;5074251;28;19912;-84
2021/11/23 05:38:58;;;;;;;;;;;3.10;1.00;;;;;;5077801;28;19917;-84
2021/11/23 05:41:24;;;;;;;;;;;3.10;1.00;;;;;;5072972;28;19912;-85
2021/11/23 05:43:50;;;;;;;;;;;3.10;1.00;;;;;;5074077;28;20373;-84
2021/11/23 05:46:15;;;;;;;;;;;3.20;1.00;;;;;;5071805;28;19923;-85
2021/11/23 05:48:41;;;;;;;;;;;3.20;1.00;;;;;;5074177;28;19924;-84
2021/11/23 05:51:06;;;;;;;;;;;3.20;1.00;;;;;;5073602;28;19912;-85
2021/11/23 05:53:33;;;;;;;;;;;3.20;1.00;;;;;;5073102;28;19943;-84
2021/11/23 05:55:58;;;;;;;;;;;3.30;1.00;;;;;;5073147;28;19913;-84
2021/11/23 05:58:24;;;;;;;;;;;3.20;99.90;;;;;;5074590;28;19928;-85
2021/11/23 06:00:50;;;;;;;;;;;3.20;99.90;;;;;;5083000;28;19979;-86
2021/11/23 06:03:15;;;;;;;;;;;3.20;99.90;;;;;;5082807;28;20007;-84
2021/11/23 06:05:40;;;;;;;;;;;3.20;99.90;;;;;;5078918;28;20399;-84
2021/11/23 06:08:06;;;;;;;;;;;3.20;99.90;;;;;;5072315;28;20378;-84
2021/11/23 06:10:31;;;;;;;;;;;3.10;99.90;;;;;;5071395;28;19991;-84
2021/11/23 06:12:57;;;;;;;;;;;3.10;99.90;;;;;;5071229;28;20330;-83
2021/11/23 06:15:23;;;;;;;;;;;3.10;99.90;;;;;;5072404;28;19916;-84
2021/11/23 06:17:55;;;;;;;;;;;3.00;99.90;;;;;;5061727;28;20356;-83
2021/11/23 06:20:20;;;;;;;;;;;3.00;99.90;;;;;;5067733;28;19922;-84
2021/11/23 06:22:46;;;;;;;;;;;3.00;99.90;;;;;;5071196;28;19912;-85
2021/11/23 06:25:11;;;;;;;;;;;3.00;99.90;;;;;;5073297;28;19912;-84
2021/11/23 06:27:37;;;;;;;;;;;3.00;99.90;;;;;;5072617;28;20284;-84
2021/11/23 06:30:04;;;;;;;;;;;3.00;99.90;;;;;;5070283;28;19912;-84
2021/11/23 06:32:29;;;;;;;;;;;3.00;99.90;;;;;;5070930;28;20474;-85
2021/11/23 06:34:54;;;;;;;;;;;3.00;99.90;;;;;;5073364;28;19920;-85
2021/11/23 06:37:20;;;;;;;;;;;3.10;1.00;;;;;;5073140;28;20779;-85
2021/11/23 06:39:46;;;;;;;;;;;3.10;1.00;;;;;;5078562;28;19912;-86
2021/11/23 06:42:11;;;;;;;;;;;3.20;1.00;;;;;;5078227;28;20393;-86
2021/11/23 06:44:36;;;;;;;;;;;3.30;1.00;;;;;;5077037;28;19909;-85
2021/11/23 06:47:02;;;;;;;;;;;3.40;1.00;;;;;;5073452;28;19912;-85
2021/11/23 06:49:27;;;;;;;;;;;3.50;1.00;;;;;;5068889;28;20216;-86
2021/11/23 06:51:53;;;;;;;;;;;3.60;99.90;;;;;;5074657;28;20182;-84
2021/11/23 06:54:18;;;;;;;;;;;3.60;99.90;;;;;;5077568;28;19916;-84
2021/11/23 06:56:44;;;;;;;;;;;3.70;98.90;;;;;;5079645;28;19921;-85
2021/11/23 06:59:09;;;;;;;;;;;3.70;1.00;;;;;;5078005;28;20386;-85
2021/11/23 07:01:35;;;;;;;;;;;3.70;1.00;;;;;;5076927;28;19950;-84
2021/11/23 07:04:00;;;;;;;;;;;3.80;1.00;;;;;;5071587;28;20339;-84
2021/11/23 07:06:26;;;;;;;;;;;3.80;99.90;;;;;;5075071;28;19912;-83
2021/11/23 07:08:51;;;;;;;;;;;3.80;99.90;;;;;;5078198;28;19935;-84
2021/11/23 07:11:17;;;;;;;;;;;3.80;99.90;;;;;;5078185;28;19916;-83
2021/11/23 07:13:43;;;;;;;;;;;3.80;99.90;;;;;;5078508;28;19924;-83
2021/11/23 07:16:09;;;;;;;;;;;3.80;99.90;;;;;;5078131;28;19913;-83
2021/11/23 07:18:34;;;;;;;;;;;3.90;99.90;;;;;;5079340;28;19913;-84
2021/11/23 07:21:00;;;;;;;;;;;3.90;99.90;;;;;;5072930;28;19966;-84
2021/11/23 07:23:25;;;;;;;;;;;3.90;99.90;;;;;;5076845;28;19920;-83
2021/11/23 07:25:51;;;;;;;;;;;3.90;99.90;;;;;;5076651;28;20261;-84
2021/11/23 07:28:17;;;;;;;;;;;3.90;41.60;;;;;;5076247;28;19913;-83
2021/11/23 07:30:42;;;;;;;;;;;4.00;1.00;;;;;;5075873;28;19920;-82
2021/11/23 07:33:08;;;;;;;;;;;4.00;1.00;;;;;;5074413;28;19916;-83
2021/11/23 07:35:33;;;;;;;;;;;4.00;99.90;;;;;;5079118;28;20399;-84
2021/11/23 07:37:59;;;;;;;;;;;4.00;99.90;;;;;;5073482;28;19912;-85
2021/11/23 07:40:25;;;;;;;;;;;4.00;99.90;;;;;;5079568;28;19931;-84
2021/11/23 07:42:50;;;;;;;;;;;4.10;99.90;;;;;;5076844;28;19913;-85
2021/11/23 07:45:16;;;;;;;;;;;4.10;99.90;;;;;;5080325;28;19908;-84
2021/11/23 07:47:41;;;;;;;;;;;4.10;99.90;;;;;;5078591;28;19940;-85
2021/11/23 07:50:07;;;;;;;;;;;4.20;99.90;;;;;;5078591;28;19912;-84
2021/11/23 07:52:34;;;;;;;;;;;4.30;99.90;;;;;;5079912;28;19957;-85
2021/11/23 07:55:00;;;;;;;;;;;4.40;99.90;;;;;;5077850;28;20409;-85
2021/11/23 07:57:25;;;;;;;;;;;4.50;99.90;;;;;;5078599;28;19916;-80
2021/11/23 07:59:51;;;;;;;;;;;4.60;30.90;;;;;;5074799;28;19919;-83
2021/11/23 08:02:16;;;;;;;;;;;4.70;1.00;;;;;;5080284;28;19919;-83
2021/11/23 08:04:42;;;;;;;;;;;4.80;1.00;;;;;;5082595;28;19908;-81
2021/11/23 08:07:07;;;;;;;;;;;4.80;99.90;;;;;;5081986;28;19931;-82
2021/11/23 08:09:32;;;;;;;;;;;4.90;92.40;;;;;;5082082;28;19969;-82
2021/11/23 08:11:58;;;;;;;;;;;5.10;1.00;;;;;;5069292;28;19921;-82
2021/11/23 08:14:25;;;;;;;;;;;5.30;99.90;;;;;;5075371;28;20405;-83
2021/11/23 08:16:51;;;;;;;;;;;5.40;1.00;;;;;;5081411;28;19912;-83
2021/11/23 08:19:16;;;;;;;;;;;5.50;1.00;;;;;;5076095;28;19932;-83
2021/11/23 08:21:42;;;;;;;;;;;5.60;99.90;;;;;;5079808;28;19931;-81
2021/11/23 08:24:07;;;;;;;;;;;5.70;1.00;;;;;;5078066;28;19920;-82
2021/11/23 08:26:33;;;;;;;;;;;5.80;1.00;;;;;;5078366;28;19913;-82
2021/11/23 08:28:59;;;;;;;;;;;5.80;99.90;;;;;;5079572;28;19946;-83
2021/11/23 08:31:24;;;;;;;;;;;5.70;99.90;;;;;;5079635;28;19912;-82
2021/11/23 08:33:50;;;;;;;;;;;5.70;99.90;;;;;;5076354;28;19975;-85
2021/11/23 08:36:15;;;;;;;;;;;5.60;99.90;;;;;;5077505;28;20402;-81
2021/11/23 08:38:41;;;;;;;;;;;5.70;99.90;;;;;;5078695;28;19928;-83
2021/11/23 08:41:07;;;;;;;;;;;5.90;99.90;;;;;;5082518;28;19913;-80
2021/11/23 08:43:33;;;;;;;;;;;6.10;99.90;;;;;;5069494;28;19924;-84
2021/11/23 08:45:58;;;;;;;;;;;6.50;99.90;;;;;;5070707;28;19913;-83
2021/11/23 08:48:24;;;;;;;;;;;6.60;99.90;;;;;;5075751;28;19919;-83
2021/11/23 08:50:49;;;;;;;;;;;6.60;49.30;;;;;;5074081;28;19921;-84
2021/11/23 08:53:15;;;;;;;;;;;6.60;1.00;;;;;;5074166;28;19959;-83
2021/11/23 08:55:41;;;;;;;;;;;6.60;1.00;;;;;;5075615;28;20398;-81
2021/11/23 08:58:07;;;;;;;;;;;6.60;1.00;;;;;;5073613;28;19913;-81
2021/11/23 09:00:33;;;;;;;;;;;6.80;1.00;;;;;;5073754;28;19942;-80
2021/11/23 09:03:00;;;;;;;;;;;6.90;99.90;;;;;;5075887;28;20322;-83
2021/11/23 09:05:27;;;;;;;;;;;6.80;99.90;;;;;;5077557;28;19924;-81
2021/11/23 09:07:53;;;;;;;;;;;6.90;99.90;;;;;;5076623;28;20330;-82
2021/11/23 09:10:21;;;;;;;;;;;6.90;99.90;;;;;;5074023;28;19951;-82
2021/11/23 09:12:48;;;;;;;;;;;6.80;99.90;;;;;;5075218;28;19913;-83
2021/11/23 09:15:14;;;;;;;;;;;6.70;99.90;;;;;;5079266;28;19909;-82
2021/11/23 09:17:41;;;;;;;;;;;6.70;99.90;;;;;;5076067;28;19922;-82
2021/11/23 09:20:07;;;;;;;;;;;6.60;99.90;;;;;;5071961;28;19984;-82
2021/11/23 09:22:32;;;;;;;;;;;6.60;99.90;;;;;;5079972;28;19913;-82
2021/11/23 09:24:58;;;;;;;;;;;6.60;99.90;;;;;;5078446;28;19916;-82
2021/11/23 09:27:23;;;;;;;;;;;6.60;99.90;;;;;;5080124;28;19958;-83
2021/11/23 09:29:49;;;;;;;;;;;6.60;99.90;;;;;;5076079;28;19920;-82
2021/11/23 09:32:15;;;;;;;;;;;6.50;99.90;;;;;;5072218;28;19912;-84
2021/11/23 09:34:41;;;;;;;;;;;6.50;99.90;;;;;;5069585;28;19919;-83
2021/11/23 09:37:06;;;;;;;;;;;6.50;99.90;;;;;;5075215;28;19912;-83
2021/11/23 09:39:32;;;;;;;;;;;6.50;1.00;;;;;;5068367;28;19912;-83
2021/11/23 09:41:58;;;;;;;;;;;6.60;1.00;;;;;;5081495;28;19913;-82
2021/11/23 09:44:23;;;;;;;;;;;6.70;1.00;;;;;;5082182;28;19944;-82
2021/11/23 09:46:49;;;;;;;;;;;6.70;1.00;;;;;;5074345;28;20006;-81
2021/11/23 09:49:14;;;;;;;;;;;6.70;1.00;;;;;;5067604;28;19912;-82
2021/11/23 09:51:40;;;;;;;;;;;6.80;1.00;;;;;;5073975;28;20000;-81
2021/11/23 09:54:07;;;;;;;;;;;6.90;1.00;;;;;;5072850;28;19934;-81
2021/11/23 09:56:34;;;;;;;;;;;6.90;1.00;;;;;;5068572;28;20312;-83
2021/11/23 09:58:59;;;;;;;;;;;7.10;1.00;;;;;;5062581;28;19912;-83
2021/11/23 10:01:27;;;;;;;;;;;7.40;1.00;;;;;;5064850;28;19915;-82
2021/11/23 10:03:54;;;;;;;;;;;7.40;1.00;;;;;;5065596;28;20538;-84
2021/11/23 10:06:22;;;;;;;;;;;7.50;1.00;;;;;;5067850;28;19916;-82
2021/11/23 10:08:48;;;;;;;;;;;7.50;1.00;;;;;;5074064;28;19979;-81
2021/11/23 10:11:20;;;;;;;;;;;7.50;1.00;;;;;;5075371;28;19916;-83
2021/11/23 10:13:48;;;;;;;;;;;7.40;1.00;;;;;;5074402;28;19924;-83
2021/11/23 10:16:14;;;;;;;;;;;7.30;1.00;;;;;;5079591;28;19931;-83
2021/11/23 10:18:40;;;;;;;;;;;7.20;1.00;;;;;;5073739;28;20000;-82
2021/11/23 10:21:06;;;;;;;;;;;7.10;1.00;;;;;;5076025;28;19952;-82
2021/11/23 10:23:33;;;;;;;;;;;7.10;1.00;;;;;;5075795;28;19912;-81
2021/11/23 10:26:02;;;;;;;;;;;7.10;99.90;;;;;;5075055;28;19913;-82
2021/11/23 10:28:28;;;;;;;;;;;7.00;99.90;;;;;;5077990;28;19951;-82
2021/11/23 10:30:54;;;;;;;;;;;7.00;99.90;;;;;;5076727;28;19912;-83
2021/11/23 10:33:20;;;;;;;;;;;6.90;1.00;;;;;;5079217;28;19913;-82
2021/11/23 10:35:47;;;;;;;;;;;7.00;99.90;;;;;;5077053;28;19931;-83
2021/11/23 10:38:14;;;;;;;;;;;7.00;99.90;;;;;;5073042;28;20300;-81
2021/11/23 10:40:41;;;;;;;;;;;7.00;38.90;;;;;;5072799;28;19909;-82
2021/11/23 10:43:09;;;;;;;;;;;7.10;1.00;;;;;;5073788;28;19965;-82
2021/11/23 10:45:35;;;;;;;;;;;7.20;1.00;;;;;;5076396;28;19913;-83
2021/11/23 10:48:04;;;;;;;;;;;7.30;1.00;;;;;;5075472;28;19964;-83
2021/11/23 10:50:30;;;;;;;;;;;7.30;1.00;;;;;;5077814;28;19962;-82
2021/11/23 10:53:01;;;;;;;;;;;7.40;1.00;;;;;;5077683;28;20354;-83
2021/11/23 10:55:29;;;;;;;;;;;7.40;1.00;;;;;;5073989;28;20392;-83
2021/11/23 10:57:56;;;;;;;;;;;7.40;99.90;;;;;;5073497;28;20368;-84
2021/11/23 11:00:23;;;;;;;;;;;7.40;99.90;;;;;;5072026;28;19954;-83
2021/11/23 11:02:50;;;;;;;;;;;7.40;99.90;;;;;;5077595;28;19967;-82
2021/11/23 11:05:16;;;;;;;;;;;7.40;1.00;;;;;;5075404;28;20386;-83
2021/11/23 11:07:45;;;;;;;;;;;7.40;99.90;;;;;;5078883;28;19999;-83
2021/11/23 11:10:11;;;;;;;;;;;7.30;99.90;;;;;;5072939;28;20003;-82
2021/11/23 11:12:37;;;;;;;;;;;7.40;1.00;;;;;;5072615;28;19913;-82
2021/11/23 11:15:04;;;;;;;;;;;7.50;1.00;;;;;;5073504;28;19917;-81
2021/11/23 11:17:30;;;;;;;;;;;7.50;1.00;;;;;;5070997;28;19916;-82
2021/11/23 11:19:56;;;;;;;;;;;7.60;1.00;;;;;;5073859;28;19951;-82
2021/11/23 11:22:23;;;;;;;;;;;7.60;1.00;;;;;;5066618;28;19913;-81
2021/11/23 11:25:29;;;;;;;;;;;7.60;99.90;;;;;;5069323;28;20273;-83
2021/11/23 11:27:48;;;;;;;;;;;7.60;99.90;;;;;;5069050;28;19919;-82
2021/11/23 11:30:18;;;;;;;;;;;7.50;1.00;;;;;;5076309;28;19948;-81
2021/11/23 11:32:44;;;;;;;;;;;7.60;99.90;;;;;;5070769;28;19916;-82
2021/11/23 11:35:24;;;;;;;;;;;7.70;99.90;;;;;;5073236;28;20431;-81
2021/11/23 11:37:51;;;;;;;;;;;7.70;99.90;;;;;;5072023;28;19916;-81
2021/11/23 11:40:25;;;;;;;;;;;7.70;99.90;;;;;;5073181;28;19948;-81
2021/11/23 11:42:51;;;;;;;;;;;7.80;1.00;;;;;;5075964;28;19919;-82
2021/11/23 11:45:17;;;;;;;;;;;7.90;1.00;;;;;;5076565;28;19909;-83
2021/11/23 11:47:45;;;;;;;;;;;7.80;1.00;;;;;;5076109;28;19985;-83
2021/11/23 11:50:16;;;;;;;;;;;7.80;99.90;;;;;;5072478;28;19916;-81
2021/11/23 11:53:58;;;;;;;;;;;7.90;1.00;;;;;;5068413;28;19921;-81
2021/11/23 11:56:39;;;;;;;;;;;8.10;1.00;;;;;;5072777;28;19913;-81
2021/11/23 11:59:23;;;;;;;;;;;8.20;99.90;;;;;;5074548;28;19912;-81
2021/11/23 12:01:59;;;;;;;;;;;8.30;1.00;;;;;;5076465;28;20427;-82
2021/11/23 12:04:27;;;;;;;;;;;8.30;1.00;;;;;;5071060;28;19909;-82
2021/11/23 12:06:55;;;;;;;;;;;8.30;99.90;;;;;;5071757;28;19913;-82
2021/11/23 12:09:31;;;;;;;;;;;8.30;99.90;;;;;;5068539;28;19962;-82
2021/11/23 12:12:16;;;;;;;;;;;8.40;99.90;;;;;;5067883;28;20300;-81
2021/11/23 12:14:51;;;;;;;;;;;8.40;99.90;;;;;;5065949;28;19917;-81
2021/11/23 12:17:24;;;;;;;;;;;8.40;99.90;;;;;;5068607;28;19913;-81
2021/11/23 12:20:09;;;;;;;;;;;8.30;1.00;;;;;;5068397;28;19913;-80
2021/11/23 12:22:38;;;;;;;;;;;8.30;1.00;;;;;;5062307;28;20003;-80
2021/11/23 12:25:04;;;;;;;;;;;8.40;1.00;;;;;;5064229;28;20261;-80
2021/11/23 12:27:34;;;;;;;;;;;8.40;1.00;;;;;;5068613;28;19912;-80
2021/11/23 12:29:59;;;;;;;;;;;8.40;1.00;;;;;;5062868;28;19920;-80
2021/11/23 12:32:32;;;;;;;;;;;8.40;1.00;;;;;;5062482;28;20311;-80
2021/11/23 12:34:58;;;;;;;;;;;8.30;1.00;;;;;;5061191;28;19917;-80
2021/11/23 12:37:36;;;;;;;;;;;8.30;99.90;;;;;;5060338;28;20391;-81
2021/11/23 12:40:23;;;;;;;;;;;8.30;99.90;;;;;;5065934;28;19959;-80
2021/11/23 12:42:53;;;;;;;;;;;8.30;99.90;;;;;;5052562;28;19917;-80
2021/11/23 12:45:20;;;;;;;;;;;8.30;1.00;;;;;;5066089;28;20300;-79
2021/11/23 12:47:47;;;;;;;;;;;8.40;38.00;;;;;;5067659;28;19919;-81
2021/11/23 12:50:12;;;;;;;;;;;8.50;85.30;;;;;;5063413;28;20055;-80
2021/11/23 12:52:37;;;;;;;;;;;8.60;1.00;;;;;;5067035;28;20005;-81
2021/11/23 12:55:03;;;;;;;;;;;8.70;1.00;;;;;;5079508;28;19990;-81
2021/11/23 12:57:29;;;;;;;;;;;8.70;99.90;;;;;;5086736;28;19908;-80
2021/11/23 12:59:59;;;;;;;;;;;8.80;99.90;;;;;;5077739;28;20384;-81
2021/11/23 13:02:31;;;;;;;;;;;8.70;99.90;;;;;;5075377;28;19914;-81
2021/11/23 13:05:17;;;;;;;;;;;8.60;1.00;;;;;;5071366;28;19946;-81
2021/11/23 13:07:56;;;;;;;;;;;8.50;97.10;;;;;;5079389;28;19905;-81
2021/11/23 13:10:29;;;;;;;;;;;8.30;1.00;;;;;;5073137;28;20010;-81
2021/11/23 13:13:00;;;;;;;;;;;8.20;99.90;;;;;;5076918;28;19912;-81
2021/11/23 13:15:27;;;;;;;;;;;8.20;4.70;;;;;;5068481;28;19919;-80
2021/11/23 13:17:55;;;;;;;;;;;8.10;99.90;;;;;;5062567;28;19986;-81
2021/11/23 13:20:29;;;;;;;;;;;8.20;99.90;;;;;;5070193;28;19912;-81
2021/11/23 13:22:57;;;;;;;;;;;8.10;99.90;;;;;;5047974;28;19968;-81
2021/11/23 13:25:28;;;;;;;;;;;8.10;1.00;;;;;;5069760;28;19924;-81
2021/11/23 13:27:54;;;;;;;;;;;8.10;1.00;;;;;;5075707;28;19919;-80
2021/11/23 13:30:38;;;;;;;;;;;8.10;1.00;;;;;;5054554;28;19971;-81
2021/11/23 13:33:08;;;;;;;;;;;8.20;1.00;;;;;;5065694;28;19959;-81
2021/11/23 13:35:33;;;;;;;;;;;8.20;1.00;;;;;;5072600;28;20380;-80
2021/11/23 13:37:59;;;;;;;;;;;8.30;1.00;;;;;;5060880;28;19920;-81
2021/11/23 13:40:25;;;;;;;;;;;8.30;1.00;;;;;;5050852;28;19965;-81
2021/11/23 13:42:51;;;;;;;;;;;8.30;1.00;;;;;;5071066;28;19916;-81
2021/11/23 13:45:20;;;;;;;;;;;8.30;1.00;;;;;;5070912;28;19924;-81
2021/11/23 13:47:46;;;;;;;;;;;8.30;1.00;;;;;;5072757;28;19908;-82
2021/11/23 13:50:13;;;;;;;;;;;8.40;1.00;;;;;;5071170;28;19912;-82
2021/11/23 13:52:39;;;;;;;;;;;8.50;1.00;;;;;;5070499;28;19917;-82
2021/11/23 13:55:05;;;;;;;;;;;8.50;1.00;;;;;;5068539;28;19962;-81
2021/11/23 13:57:35;;;;;;;;;;;8.50;1.00;;;;;;5066136;28;19920;-81
2021/11/23 14:00:08;;;;;;;;;;;8.40;1.00;;;;;;5070875;28;19942;-81
2021/11/23 14:02:46;;;;;;;;;;;8.40;91.10;;;;;;5071119;28;19912;-81
2021/11/23 14:05:12;;;;;;;;;;;8.30;99.90;;;;;;5073779;28;19916;-81
2021/11/23 14:07:47;;;;;;;;;;;8.30;99.90;;;;;;5073069;28;20637;-80
2021/11/23 14:10:12;;;;;;;;;;;8.30;99.90;;;;;;5070837;28;19920;-82
2021/11/23 14:12:42;;;;;;;;;;;8.20;99.90;;;;;;5064297;28;20293;-81
2021/11/23 14:15:09;;;;;;;;;;;8.20;99.90;;;;;;5064197;28;19916;-81
2021/11/23 14:17:54;;;;;;;;;;;8.10;99.90;;;;;;5052006;28;19916;-81
2021/11/23 14:20:20;;;;;;;;;;;8.10;99.90;;;;;;5071904;28;19995;-81
2021/11/23 14:22:45;;;;;;;;;;;8.10;99.90;;;;;;5077766;28;20387;-81
2021/11/23 14:25:17;;;;;;;;;;;8.10;99.90;;;;;;5069850;28;19984;-82
2021/11/23 14:27:48;;;;;;;;;;;8.10;99.90;;;;;;5074526;28;19919;-80
2021/11/23 14:30:14;;;;;;;;;;;8.00;99.90;;;;;;5066698;28;19931;-80
2021/11/23 14:32:39;;;;;;;;;;;8.10;99.90;;;;;;5045482;28;19916;-79
2021/11/23 14:35:05;;;;;;;;;;;8.00;99.90;;;;;;5064392;28;19986;-79